createdAt,value
2023-01-29T00:01:48.625Z,27.02
2023-01-29T00:04:58.736Z,35.05
2023-01-29T00:08:04.819Z,29.33
2023-01-29T00:11:11.100Z,30.50
2023-01-29T00:14:16.863Z,30.58
2023-01-29T00:17:22.170Z,30.25
2023-01-29T00:20:27.855Z,32.33
2023-01-29T00:23:33.442Z,30.90
2023-01-29T00:26:39.755Z,27.77
2023-01-29T00:30:02.672Z,28.83
2023-01-29T00:33:08.006Z,25.98
2023-01-29T00:36:16.157Z,30.85
2023-01-29T00:39:31.476Z,28.88
2023-01-29T00:43:04.260Z,25.33
2023-01-29T00:46:10.912Z,22.58
2023-01-29T00:49:16.418Z,24.45
2023-01-29T00:52:24.895Z,22.55
2023-01-29T00:55:30.060Z,26.13
2023-01-29T00:58:35.679Z,22.35
2023-01-29T01:01:59.307Z,26.60
2023-01-29T01:05:08.086Z,21.35
2023-01-29T01:08:32.769Z,21.80
2023-01-29T01:11:37.964Z,16.95
2023-01-29T01:14:43.512Z,23.73
2023-01-29T01:17:53.141Z,18.77
2023-01-29T01:20:59.812Z,28.83
2023-01-29T01:24:06.347Z,17.08
2023-01-29T01:27:13.518Z,21.13
2023-01-29T01:30:19.142Z,19.80
2023-01-29T01:33:25.064Z,21.50
2023-01-29T01:36:32.668Z,18.48
2023-01-29T01:39:38.008Z,23.05
2023-01-29T01:42:44.478Z,22.50
2023-01-29T01:45:50.154Z,14.85
2023-01-29T01:49:02.306Z,17.80
2023-01-29T01:52:09.154Z,19.95
2023-01-29T01:55:19.539Z,15.57
2023-01-29T01:58:30.864Z,16.20
2023-01-29T02:01:36.412Z,15.00
2023-01-29T02:05:06.766Z,16.90
2023-01-29T02:08:30.922Z,17.60
2023-01-29T02:11:36.990Z,16.17
2023-01-29T02:14:43.841Z,18.42
2023-01-29T02:17:49.046Z,16.75
2023-01-29T02:21:11.034Z,14.93
2023-01-29T02:24:54.963Z,16.70
2023-01-29T02:28:37.229Z,17.35
2023-01-29T02:31:51.944Z,16.60
2023-01-29T02:35:32.255Z,17.42
2023-01-29T02:38:48.002Z,17.60
2023-01-29T02:42:11.990Z,14.27
2023-01-29T02:45:33.270Z,18.65
2023-01-29T02:49:06.670Z,14.63
2023-01-29T02:52:34.064Z,15.55
2023-01-29T02:55:57.670Z,18.23
2023-01-29T02:59:12.725Z,18.90
2023-01-29T03:02:26.295Z,15.93
2023-01-29T03:05:45.080Z,16.42
2023-01-29T03:09:11.105Z,19.58
2023-01-29T03:12:34.404Z,18.70
2023-01-29T03:15:48.597Z,18.67
2023-01-29T03:19:37.017Z,22.60
2023-01-29T03:22:57.239Z,18.27
2023-01-29T03:26:21.350Z,18.77
2023-01-29T03:29:45.474Z,15.70
2023-01-29T03:32:52.355Z,16.15
2023-01-29T03:36:07.513Z,16.10
2023-01-29T03:39:15.779Z,13.90
2023-01-29T03:42:35.761Z,17.00
2023-01-29T03:46:22.677Z,12.93
2023-01-29T03:49:33.048Z,15.07
2023-01-29T03:53:07.072Z,17.45
2023-01-29T03:56:37.839Z,19.38
2023-01-29T04:00:08.375Z,16.88
2023-01-29T04:03:49.286Z,16.38
2023-01-29T04:07:03.493Z,16.42
2023-01-29T04:10:14.590Z,17.17
2023-01-29T04:13:21.814Z,15.50
2023-01-29T04:16:35.228Z,14.45
2023-01-29T04:20:04.807Z,15.77
2023-01-29T04:23:27.102Z,22.05
2023-01-29T04:27:21.558Z,22.05
2023-01-29T04:30:31.009Z,19.98
2023-01-29T04:34:04.281Z,16.98
2023-01-29T04:37:20.802Z,19.20
2023-01-29T04:40:33.139Z,18.13
2023-01-29T04:43:48.288Z,21.42
2023-01-29T04:47:14.777Z,20.90
2023-01-29T04:50:34.246Z,16.70
2023-01-29T04:53:55.783Z,16.13
2023-01-29T04:57:12.550Z,20.67
2023-01-29T05:00:43.541Z,16.75
2023-01-29T05:03:53.211Z,19.73
2023-01-29T05:07:04.690Z,24.42
2023-01-29T05:10:13.446Z,18.83
2023-01-29T05:13:21.359Z,23.02
2023-01-29T05:16:30.948Z,19.80
2023-01-29T05:19:36.314Z,23.23
2023-01-29T05:22:42.839Z,23.08
2023-01-29T05:25:50.191Z,24.23
2023-01-29T05:28:56.276Z,22.88
2023-01-29T05:32:02.049Z,25.52
2023-01-29T05:35:07.888Z,27.20
2023-01-29T05:38:14.314Z,20.80
2023-01-29T05:41:20.177Z,23.55
2023-01-29T05:44:25.576Z,26.15
2023-01-29T05:47:31.440Z,23.83
2023-01-29T05:50:36.614Z,21.55
2023-01-29T05:53:41.792Z,25.27
2023-01-29T05:56:47.056Z,22.00
2023-01-29T05:59:52.431Z,21.55
2023-01-29T06:02:59.467Z,32.92
2023-01-29T06:06:05.259Z,23.33
2023-01-29T06:09:12.203Z,27.15
2023-01-29T06:12:17.477Z,23.83
2023-01-29T06:15:22.646Z,24.27
2023-01-29T06:18:27.815Z,22.80
2023-01-29T06:21:32.881Z,24.52
2023-01-29T06:24:38.148Z,30.45
2023-01-29T06:27:43.679Z,25.23
2023-01-29T06:30:48.911Z,20.50
2023-01-29T06:33:54.216Z,23.13
2023-01-29T06:36:59.969Z,25.52
2023-01-29T06:40:05.484Z,21.40
2023-01-29T06:43:10.428Z,27.02
2023-01-29T06:46:15.532Z,25.95
2023-01-29T06:49:21.412Z,24.95
2023-01-29T06:52:29.507Z,26.40
2023-01-29T06:55:35.063Z,27.40
2023-01-29T06:58:40.733Z,23.30
2023-01-29T07:01:46.076Z,22.23
2023-01-29T07:04:51.782Z,25.08
2023-01-29T07:07:57.672Z,25.42
2023-01-29T07:11:03.429Z,22.52
2023-01-29T07:14:08.972Z,23.60
2023-01-29T07:17:14.612Z,22.63
2023-01-29T07:20:20.118Z,21.73
2023-01-29T07:23:25.819Z,21.92
2023-01-29T07:26:31.785Z,25.50
2023-01-29T07:29:37.580Z,21.58
2023-01-29T07:32:43.044Z,28.85
2023-01-29T07:35:48.310Z,22.35
2023-01-29T07:38:54.069Z,21.42
2023-01-29T07:41:58.965Z,22.48
2023-01-29T07:45:07.312Z,20.10
2023-01-29T07:48:13.622Z,26.73
2023-01-29T07:51:19.115Z,31.52
2023-01-29T07:54:24.692Z,23.17
2023-01-29T07:57:31.094Z,20.52
2023-01-29T08:00:36.895Z,21.55
2023-01-29T08:03:41.905Z,23.23
2023-01-29T08:06:47.088Z,23.92
2023-01-29T08:09:52.069Z,24.13
2023-01-29T08:12:58.860Z,22.80
2023-01-29T08:16:05.024Z,21.20
2023-01-29T08:19:10.240Z,21.42
2023-01-29T08:22:16.739Z,22.15
2023-01-29T08:25:22.828Z,25.52
2023-01-29T08:28:28.983Z,27.58
2023-01-29T08:31:35.559Z,19.85
2023-01-29T08:34:40.959Z,46.75
2023-01-29T08:37:56.748Z,24.38
2023-01-29T08:41:02.353Z,20.58
2023-01-29T08:44:07.990Z,26.13
2023-01-29T08:47:13.241Z,24.60
2023-01-29T08:50:19.110Z,21.10
2023-01-29T08:53:25.230Z,22.52
2023-01-29T08:56:30.432Z,29.25
2023-01-29T08:59:35.344Z,31.38
2023-01-29T09:02:40.748Z,24.52
2023-01-29T09:05:47.057Z,29.02
2023-01-29T09:08:52.168Z,24.48
2023-01-29T09:11:57.348Z,23.75
2023-01-29T09:15:02.519Z,24.88
2023-01-29T09:18:07.395Z,29.85
2023-01-29T09:21:12.548Z,27.27
2023-01-29T09:24:17.695Z,26.50
2023-01-29T09:27:22.661Z,23.33
2023-01-29T09:30:27.898Z,26.73
2023-01-29T09:33:33.260Z,24.63
2023-01-29T09:36:38.421Z,27.45
2023-01-29T09:39:44.024Z,25.00
2023-01-29T09:42:55.958Z,23.92
2023-01-29T09:46:08.419Z,25.13
2023-01-29T09:49:52.472Z,33.75
2023-01-29T09:53:11.222Z,27.48
2023-01-29T09:56:21.973Z,26.92
2023-01-29T09:59:32.755Z,22.15
2023-01-29T10:02:48.633Z,25.67
2023-01-29T10:06:22.090Z,25.70
2023-01-29T10:10:03.287Z,26.15
2023-01-29T10:13:24.311Z,26.08
2023-01-29T10:16:41.882Z,26.15
2023-01-29T10:20:22.521Z,27.85
2023-01-29T10:23:34.492Z,30.40
2023-01-29T10:26:41.686Z,30.20
2023-01-29T10:29:50.864Z,27.67
2023-01-29T10:33:02.081Z,32.80
2023-01-29T10:36:13.493Z,26.70
2023-01-29T10:39:25.004Z,28.23
2023-01-29T10:42:46.876Z,26.40
2023-01-29T10:46:23.138Z,31.98
2023-01-29T10:49:45.787Z,24.10
2023-01-29T10:53:05.761Z,26.13
2023-01-29T10:56:30.163Z,27.33
2023-01-29T11:00:13.636Z,21.58
2023-01-29T11:03:28.248Z,25.58
2023-01-29T11:06:36.915Z,24.42
2023-01-29T11:09:58.198Z,22.25
2023-01-29T11:13:06.421Z,23.63
2023-01-29T11:16:12.064Z,22.38
2023-01-29T11:19:18.079Z,19.15
2023-01-29T11:22:29.403Z,21.92
2023-01-29T11:25:34.855Z,18.77
2023-01-29T11:28:41.551Z,18.90
2023-01-29T11:31:48.602Z,21.33
2023-01-29T11:35:20.893Z,23.63
2023-01-29T11:38:29.369Z,18.30
2023-01-29T11:41:44.078Z,21.33
2023-01-29T11:44:50.380Z,21.77
2023-01-29T11:47:57.396Z,18.17
2023-01-29T11:51:05.554Z,21.63
2023-01-29T11:54:20.079Z,21.58
2023-01-29T11:57:33.981Z,21.80
2023-01-29T12:00:41.605Z,19.17
2023-01-29T12:03:53.581Z,21.85
2023-01-29T12:06:58.917Z,20.13
2023-01-29T12:10:04.898Z,22.23
2023-01-29T12:13:22.486Z,21.38
2023-01-29T12:16:57.212Z,21.02
2023-01-29T12:20:13.171Z,23.38
2023-01-29T12:23:36.985Z,16.52
2023-01-29T12:26:55.764Z,22.10
2023-01-29T12:30:26.518Z,23.75
2023-01-29T12:33:57.751Z,21.27
2023-01-29T12:37:25.478Z,20.70
2023-01-29T12:40:44.524Z,21.52
2023-01-29T12:43:58.583Z,17.13
2023-01-29T12:47:09.000Z,20.75
2023-01-29T12:50:18.420Z,19.58
2023-01-29T12:53:57.494Z,19.00
2023-01-29T12:57:09.010Z,18.73
2023-01-29T13:00:19.797Z,17.40
2023-01-29T13:03:25.841Z,19.55
2023-01-29T13:06:36.738Z,19.13
2023-01-29T13:09:51.116Z,17.83
2023-01-29T13:13:04.471Z,15.20
2023-01-29T13:16:13.469Z,16.15
2023-01-29T13:19:33.505Z,16.60
2023-01-29T13:22:41.465Z,16.52
2023-01-29T13:25:49.859Z,21.08
2023-01-29T13:28:55.634Z,16.10
2023-01-29T13:32:03.693Z,15.98
2023-01-29T13:35:16.098Z,14.93
2023-01-29T13:38:35.967Z,14.85
2023-01-29T13:41:43.799Z,12.35
2023-01-29T13:44:53.426Z,14.82
2023-01-29T13:48:27.824Z,12.75
2023-01-29T13:51:37.007Z,13.27
2023-01-29T13:54:57.802Z,11.25
2023-01-29T13:58:04.090Z,17.63
2023-01-29T14:01:09.588Z,15.30
2023-01-29T14:04:28.915Z,11.15
2023-01-29T14:08:27.003Z,12.80
2023-01-29T14:11:36.565Z,15.20
2023-01-29T14:14:50.819Z,17.52
2023-01-29T14:18:16.943Z,17.42
2023-01-29T14:21:28.909Z,19.05
2023-01-29T14:24:34.398Z,19.88
2023-01-29T14:27:39.904Z,16.30
2023-01-29T14:30:48.925Z,14.57
2023-01-29T14:34:00.405Z,16.02
2023-01-29T14:37:34.626Z,12.75
2023-01-29T14:40:42.421Z,17.30
2023-01-29T14:43:48.123Z,16.20
2023-01-29T14:46:53.425Z,17.08
2023-01-29T14:50:23.358Z,21.23
2023-01-29T14:53:34.191Z,19.63
2023-01-29T14:56:54.770Z,18.17
2023-01-29T15:00:07.417Z,13.55
2023-01-29T15:03:20.506Z,19.92
2023-01-29T15:06:48.252Z,18.85
2023-01-29T15:10:21.443Z,18.38
2023-01-29T15:13:36.329Z,16.55
2023-01-29T15:17:07.838Z,22.38
2023-01-29T15:20:30.304Z,18.83
2023-01-29T15:23:35.871Z,21.42
2023-01-29T15:26:43.629Z,19.05
2023-01-29T15:29:59.727Z,22.23
2023-01-29T15:33:11.108Z,20.15
2023-01-29T15:36:24.256Z,22.08
2023-01-29T15:39:31.956Z,21.00
2023-01-29T15:42:46.939Z,19.55
2023-01-29T15:45:56.738Z,20.75
2023-01-29T15:49:08.708Z,22.70
2023-01-29T15:52:35.430Z,16.98
2023-01-29T15:55:41.966Z,24.55
2023-01-29T15:58:49.672Z,24.83
2023-01-29T16:01:56.655Z,24.88
2023-01-29T16:05:03.167Z,21.17
2023-01-29T16:08:14.526Z,22.77
2023-01-29T16:11:20.658Z,21.63
2023-01-29T16:14:28.093Z,22.38
2023-01-29T16:17:35.997Z,22.73
2023-01-29T16:20:47.619Z,25.50
2023-01-29T16:23:57.230Z,25.73
2023-01-29T16:27:13.280Z,23.90
2023-01-29T16:30:19.211Z,26.15
2023-01-29T16:33:36.145Z,23.25
2023-01-29T16:36:48.750Z,26.77
2023-01-29T16:39:54.824Z,27.35
2023-01-29T16:43:09.194Z,24.20
2023-01-29T16:46:52.684Z,25.77
2023-01-29T16:50:06.062Z,23.08
2023-01-29T16:53:12.982Z,24.35
2023-01-29T16:56:26.091Z,27.00
2023-01-29T16:59:31.490Z,25.52
2023-01-29T17:02:39.842Z,25.85
2023-01-29T17:05:46.320Z,27.98
2023-01-29T17:08:52.651Z,20.95
2023-01-29T17:12:01.862Z,22.85
2023-01-29T17:15:32.293Z,21.52
2023-01-29T17:18:37.636Z,23.48
2023-01-29T17:21:43.654Z,23.83
2023-01-29T17:24:51.863Z,22.73
2023-01-29T17:28:01.091Z,29.35
2023-01-29T17:31:08.097Z,24.90
2023-01-29T17:34:15.215Z,26.83
2023-01-29T17:37:20.411Z,28.35
2023-01-29T17:40:36.995Z,31.23
2023-01-29T17:43:44.629Z,27.80
2023-01-29T17:46:49.999Z,32.50
2023-01-29T17:49:55.429Z,28.77
2023-01-29T17:53:01.912Z,27.35
2023-01-29T17:56:07.469Z,31.73
2023-01-29T17:59:18.284Z,37.35
2023-01-29T18:02:28.942Z,30.92
2023-01-29T18:05:35.716Z,33.60
2023-01-29T18:08:41.188Z,28.60
2023-01-29T18:11:47.859Z,31.63
2023-01-29T18:14:53.215Z,27.05
2023-01-29T18:17:59.099Z,27.45
2023-01-29T18:21:04.539Z,29.15
2023-01-29T18:24:10.150Z,38.03
2023-01-29T18:27:15.511Z,34.47
2023-01-29T18:30:21.701Z,27.92
2023-01-29T18:33:26.980Z,31.55
2023-01-29T18:36:32.565Z,29.88
2023-01-29T18:39:38.172Z,28.50
2023-01-29T18:42:47.233Z,29.27
2023-01-29T18:45:59.100Z,32.40
2023-01-29T18:49:05.461Z,30.08
2023-01-29T18:52:11.530Z,34.70
2023-01-29T18:55:17.214Z,32.17
2023-01-29T18:58:27.272Z,39.40
2023-01-29T19:01:40.278Z,40.80
2023-01-29T19:04:46.198Z,38.63
2023-01-29T19:07:52.692Z,33.90
2023-01-29T19:11:02.647Z,33.92
2023-01-29T19:14:07.905Z,35.75
2023-01-29T19:17:13.598Z,31.55
2023-01-29T19:20:19.594Z,35.90
2023-01-29T19:23:25.256Z,37.53
2023-01-29T19:26:34.380Z,42.38
2023-01-29T19:29:40.112Z,34.55
2023-01-29T19:32:45.570Z,42.35
2023-01-29T19:35:51.369Z,37.13
2023-01-29T19:38:57.400Z,31.52
2023-01-29T19:42:02.829Z,41.58
2023-01-29T19:45:09.151Z,28.60
2023-01-29T19:48:17.920Z,34.00
2023-01-29T19:51:23.630Z,34.75
2023-01-29T19:54:29.767Z,32.03
2023-01-29T19:57:35.380Z,44.13
2023-01-29T20:00:40.937Z,42.72
2023-01-29T20:03:48.333Z,43.55
2023-01-29T20:06:53.602Z,55.70
2023-01-29T20:09:59.278Z,48.47
2023-01-29T20:13:06.304Z,44.05
2023-01-29T20:16:11.626Z,40.58
2023-01-29T20:19:17.123Z,36.50
2023-01-29T20:22:22.661Z,40.47
2023-01-29T20:25:28.083Z,46.17
2023-01-29T20:28:35.037Z,47.08
2023-01-29T20:31:40.499Z,46.03
2023-01-29T20:34:49.865Z,45.03
2023-01-29T20:37:54.991Z,40.53
2023-01-29T20:41:14.571Z,38.53
2023-01-29T20:44:20.217Z,35.03
2023-01-29T20:47:25.945Z,38.78
2023-01-29T20:50:31.299Z,40.15
2023-01-29T20:53:37.567Z,42.67
2023-01-29T20:56:45.123Z,42.47
2023-01-29T20:59:54.406Z,39.10
2023-01-29T21:02:59.655Z,37.85
2023-01-29T21:06:05.559Z,41.65
2023-01-29T21:09:11.136Z,38.22
2023-01-29T21:12:16.776Z,32.75
2023-01-29T21:15:23.655Z,35.13
2023-01-29T21:18:29.057Z,34.63
2023-01-29T21:21:34.862Z,36.67
2023-01-29T21:24:40.218Z,39.55
2023-01-29T21:27:45.722Z,39.10
2023-01-29T21:30:51.309Z,37.72
2023-01-29T21:33:56.556Z,41.92
2023-01-29T21:37:02.155Z,45.22
2023-01-29T21:40:09.513Z,40.03
2023-01-29T21:43:16.378Z,39.03
2023-01-29T21:46:22.035Z,38.35
2023-01-29T21:49:28.127Z,33.58
2023-01-29T21:52:33.480Z,38.05
2023-01-29T21:55:39.361Z,36.33
2023-01-29T21:58:47.591Z,37.92
2023-01-29T22:01:53.383Z,36.55
2023-01-29T22:05:18.679Z,44.60
2023-01-29T22:08:25.280Z,41.63
2023-01-29T22:11:30.690Z,43.40
2023-01-29T22:14:35.972Z,43.33
2023-01-29T22:17:42.145Z,46.42
2023-01-29T22:20:54.151Z,45.05
2023-01-29T22:23:59.676Z,48.17
2023-01-29T22:27:05.123Z,45.13
2023-01-29T22:30:11.619Z,49.50
2023-01-29T22:33:17.716Z,49.47
2023-01-29T22:36:23.442Z,50.78
2023-01-29T22:39:29.032Z,46.08
2023-01-29T22:42:34.835Z,50.55
2023-01-29T22:45:40.212Z,43.17
2023-01-29T22:48:46.234Z,37.00
2023-01-29T22:52:10.676Z,40.50
2023-01-29T22:55:16.219Z,43.25
2023-01-29T22:58:21.682Z,37.45
2023-01-29T23:01:29.870Z,44.58
2023-01-29T23:04:35.933Z,40.70
2023-01-29T23:07:41.600Z,47.15
2023-01-29T23:10:47.182Z,42.33
2023-01-29T23:13:54.730Z,39.33
2023-01-29T23:17:00.886Z,40.00
2023-01-29T23:20:07.197Z,39.20
2023-01-29T23:23:12.845Z,44.47
2023-01-29T23:26:36.915Z,39.13
2023-01-29T23:29:44.881Z,46.03
2023-01-29T23:32:50.492Z,43.58
2023-01-29T23:35:55.800Z,44.20
2023-01-29T23:39:01.450Z,52.35
2023-01-29T23:42:06.766Z,45.45
2023-01-29T23:45:12.272Z,50.03
2023-01-29T23:48:17.913Z,44.55
2023-01-29T23:51:23.849Z,51.42
2023-01-29T23:54:29.473Z,55.03
2023-01-29T23:57:35.222Z,52.95
